Marshall, Arkansas
Current Conditions -  °F | °C
As of 10:35 AM on Friday 31 Oct 2014 (Local Time) from KFLP Reporting Station
Overcast Overcast  
Wind Chill: 52°   Ceiling: 3100
Heat Index: 52°   Visibility: 10mi
Dew Point: 36°   Wind: 9mph
Humidity: 54%   Direction: 360°N
Pressure: 30.28"   Gusts: 21mph
Location:  35.91°N, 92.63°W
Report Text: KFLP 311535Z AUTO 36008G18KT 10SM BKN031 OVC038 11/02 A3028 RMK AO1
Loading
Personal Weather Stations






























Interactive Weather Map
Tropical Storm Tracking
New forecast layout! Learn more

10-Day Weather Forecast

Advertisements
Track Severe Weather on mobile